createdAt,value
2023-04-19T00:00:01.173Z,100709.54
2023-04-19T00:02:32.026Z,100704.42
2023-04-19T00:05:02.987Z,100701.35
2023-04-19T00:07:33.794Z,100699.32
2023-04-19T00:10:04.573Z,100693.00
2023-04-19T00:12:35.365Z,100692.17
2023-04-19T00:15:06.872Z,100689.63
2023-04-19T00:17:37.891Z,100693.57
2023-04-19T00:20:13.115Z,100690.84
2023-04-19T00:22:42.239Z,100696.16
2023-04-19T00:25:13.565Z,100691.90
2023-04-19T00:27:44.404Z,100693.63
2023-04-19T00:30:16.696Z,100691.92
2023-04-19T00:32:47.413Z,100692.27
2023-04-19T00:35:18.291Z,100690.75
2023-04-19T00:37:50.579Z,100691.94
2023-04-19T00:40:21.534Z,100688.01
2023-04-19T00:42:52.290Z,100687.52
2023-04-19T00:45:23.108Z,100686.17
2023-04-19T00:47:56.784Z,100678.66
2023-04-19T00:50:28.200Z,100680.36
2023-04-19T00:53:01.376Z,100678.84
2023-04-19T00:55:32.290Z,100669.45
2023-04-19T00:58:03.788Z,100670.31
2023-04-19T01:00:34.798Z,100667.07
2023-04-19T01:03:05.729Z,100665.37
2023-04-19T01:05:36.706Z,100659.05
2023-04-19T01:08:08.470Z,100654.96
2023-04-19T01:10:39.226Z,100652.91
2023-04-19T01:13:09.953Z,100644.40
2023-04-19T01:15:41.789Z,100642.35
2023-04-19T01:18:13.918Z,100639.10
2023-04-19T01:20:44.598Z,100635.35
2023-04-19T01:23:15.291Z,100638.43
2023-04-19T01:25:46.451Z,100635.19
2023-04-19T01:28:17.279Z,100632.98
2023-04-19T01:30:50.996Z,100628.54
2023-04-19T01:33:22.539Z,100627.17
2023-04-19T01:35:53.290Z,100623.94
2023-04-19T01:38:23.930Z,100622.58
2023-04-19T01:40:56.919Z,100621.89
2023-04-19T01:43:28.762Z,100619.67
2023-04-19T01:45:59.549Z,100620.17
2023-04-19T01:48:30.339Z,100618.30
2023-04-19T01:51:01.152Z,100621.19
2023-04-19T01:53:32.917Z,100622.40
2023-04-19T01:56:03.818Z,100619.83
2023-04-19T01:58:35.080Z,100616.42
2023-04-19T02:01:06.635Z,100611.47
2023-04-19T02:03:37.961Z,100607.20
2023-04-19T02:06:14.121Z,100604.83
2023-04-19T02:08:46.002Z,100603.45
2023-04-19T02:11:17.133Z,100603.80
2023-04-19T02:13:48.007Z,100604.66
2023-04-19T02:16:18.985Z,100602.95
2023-04-19T02:18:49.876Z,100602.43
2023-04-19T02:21:22.369Z,100600.05
2023-04-19T02:23:53.500Z,100598.00
2023-04-19T02:26:24.723Z,100599.02
2023-04-19T02:28:55.621Z,100600.55
2023-04-19T02:31:27.141Z,100594.23
2023-04-19T02:33:58.100Z,100594.23
2023-04-19T02:36:28.817Z,100592.36
2023-04-19T02:38:59.686Z,100591.00
2023-04-19T02:41:30.396Z,100590.48
2023-04-19T02:44:01.123Z,100586.74
2023-04-19T02:46:31.855Z,100586.58
2023-04-19T02:49:05.055Z,100587.23
2023-04-19T02:51:35.818Z,100585.36
2023-04-19T02:54:07.001Z,100580.27
2023-04-19T02:56:37.773Z,100581.79
2023-04-19T02:59:08.458Z,100579.06
2023-04-19T03:01:39.248Z,100573.77
2023-04-19T03:04:10.541Z,100570.03
2023-04-19T03:06:44.532Z,100562.70
2023-04-19T03:09:15.856Z,100560.64
2023-04-19T03:11:46.532Z,100557.23
2023-04-19T03:14:17.700Z,100556.73
2023-04-19T03:16:48.730Z,100552.63
2023-04-19T03:19:19.496Z,100551.61
2023-04-19T03:21:52.954Z,100550.92
2023-04-19T03:24:30.303Z,100550.74
2023-04-19T03:27:02.505Z,100547.16
2023-04-19T03:29:33.855Z,100547.52
2023-04-19T03:32:08.687Z,100546.15
2023-04-19T03:34:39.401Z,100545.64
2023-04-19T03:37:10.105Z,100544.61
2023-04-19T03:39:40.927Z,100541.55
2023-04-19T03:42:13.204Z,100538.14
2023-04-19T03:44:59.480Z,100536.95
2023-04-19T03:47:32.224Z,100532.02
2023-04-19T03:50:03.433Z,100534.38
2023-04-19T03:52:34.484Z,100529.63
2023-04-19T03:55:06.601Z,100529.27
2023-04-19T03:57:40.986Z,100523.81
2023-04-19T04:00:21.572Z,100521.77
2023-04-19T04:02:57.250Z,100517.50
2023-04-19T04:05:36.333Z,100515.29
2023-04-19T04:08:07.700Z,100512.23
2023-04-19T04:10:38.789Z,100510.52
2023-04-19T04:13:10.091Z,100513.08
2023-04-19T04:15:50.821Z,100511.70
2023-04-19T04:18:23.464Z,100507.45
2023-04-19T04:20:57.051Z,100508.81
2023-04-19T04:23:32.090Z,100506.24
2023-04-19T04:26:14.067Z,100505.56
2023-04-19T04:29:05.476Z,100507.27
2023-04-19T04:31:37.109Z,100505.23
2023-04-19T04:34:09.753Z,100507.45
2023-04-19T04:36:43.335Z,100505.05
2023-04-19T04:39:14.255Z,100507.95
2023-04-19T04:41:51.994Z,100505.73
2023-04-19T04:44:23.825Z,100505.39
2023-04-19T04:46:55.210Z,100505.39
2023-04-19T04:49:30.788Z,100508.30
2023-04-19T04:52:02.643Z,100501.31
2023-04-19T04:54:36.831Z,100507.29
2023-04-19T04:57:08.186Z,100503.70
2023-04-19T04:59:38.928Z,100502.16
2023-04-19T05:02:10.186Z,100497.73
2023-04-19T05:04:41.649Z,100490.40
2023-04-19T05:07:14.480Z,100488.53
2023-04-19T05:09:45.589Z,100483.23
2023-04-19T05:12:18.012Z,100483.75
2023-04-19T05:14:48.740Z,100483.58
2023-04-19T05:17:22.424Z,100481.54
2023-04-19T05:19:53.597Z,100477.95
2023-04-19T05:22:24.564Z,100481.88
2023-04-19T05:24:55.362Z,100478.64
2023-04-19T05:27:26.142Z,100480.17
2023-04-19T05:29:57.667Z,100485.80
2023-04-19T05:32:30.062Z,100483.75
2023-04-19T05:35:05.428Z,100482.91
2023-04-19T05:37:36.994Z,100483.24
2023-04-19T05:40:10.829Z,100485.12
2023-04-19T05:42:41.816Z,100485.98
2023-04-19T05:45:16.862Z,100481.20
2023-04-19T05:47:53.485Z,100477.27
2023-04-19T05:50:43.724Z,100477.79
2023-04-19T05:53:40.185Z,100480.17
2023-04-19T05:56:17.216Z,100472.00
2023-04-19T05:58:48.215Z,100473.17
2023-04-19T06:01:27.514Z,100474.38
2023-04-19T06:04:07.940Z,100474.88
2023-04-19T06:06:39.943Z,100472.83
2023-04-19T06:09:13.534Z,100469.76
2023-04-19T06:11:50.950Z,100465.98
2023-04-19T06:14:25.571Z,100466.84
2023-04-19T06:16:57.123Z,100462.58
2023-04-19T06:19:32.838Z,100458.83
2023-04-19T06:22:03.550Z,100459.69
2023-04-19T06:24:35.295Z,100457.48
2023-04-19T06:27:06.487Z,100457.81
2023-04-19T06:29:37.212Z,100456.96
2023-04-19T06:32:10.044Z,100453.73
2023-04-19T06:34:41.557Z,100452.35
2023-04-19T06:37:12.460Z,100461.22
2023-04-19T06:39:43.185Z,100458.84
2023-04-19T06:42:14.033Z,100450.65
2023-04-19T06:44:47.165Z,100452.86
2023-04-19T06:47:20.372Z,100450.48
2023-04-19T06:49:51.558Z,100453.71
2023-04-19T06:52:22.422Z,100455.93
2023-04-19T06:54:53.679Z,100455.58
2023-04-19T06:57:25.263Z,100456.24
2023-04-19T07:00:23.661Z,100459.98
2023-04-19T07:02:56.019Z,100462.36
2023-04-19T07:05:28.182Z,100465.92
2023-04-19T07:07:59.519Z,100465.73
2023-04-19T07:10:30.639Z,100462.98
2023-04-19T07:13:01.711Z,100461.06
2023-04-19T07:15:32.568Z,100456.27
2023-04-19T07:18:03.396Z,100461.52
2023-04-19T07:20:34.374Z,100459.09
2023-04-19T07:23:05.130Z,100461.30
2023-04-19T07:25:35.854Z,100457.86
2023-04-19T07:28:06.919Z,100455.29
2023-04-19T07:30:38.398Z,100452.90
2023-04-19T07:33:09.549Z,100456.48
2023-04-19T07:35:47.683Z,100456.48
2023-04-19T07:38:19.304Z,100459.21
2023-04-19T07:40:50.260Z,100454.95
2023-04-19T07:43:21.488Z,100458.88
2023-04-19T07:45:52.347Z,100460.94
2023-04-19T07:48:23.116Z,100459.07
2023-04-19T07:50:54.190Z,100455.98
2023-04-19T07:53:25.099Z,100456.98
2023-04-19T07:55:59.082Z,100456.62
2023-04-19T07:58:31.762Z,100460.03
2023-04-19T08:01:02.642Z,100459.86
2023-04-19T08:03:34.956Z,100466.35
2023-04-19T08:06:07.508Z,100466.54
2023-04-19T08:08:38.421Z,100466.73
2023-04-19T08:11:09.347Z,100465.88
2023-04-19T08:13:51.622Z,100462.11
2023-04-19T08:19:12.792Z,100462.21
2023-04-19T08:21:43.767Z,100463.04
2023-04-19T08:24:42.578Z,100460.61
2023-04-19T08:27:13.643Z,100456.84
2023-04-19T08:29:44.640Z,100457.83
2023-04-19T08:32:17.875Z,100460.52
2023-04-19T08:34:50.144Z,100456.91
2023-04-19T08:37:20.948Z,100460.80
2023-04-19T08:39:53.173Z,100461.25
2023-04-19T08:42:35.582Z,100462.22
2023-04-19T08:47:59.650Z,100462.20
2023-04-19T08:50:38.788Z,100463.70
2023-04-19T08:53:26.147Z,100459.05
2023-04-19T08:56:12.689Z,100462.79
2023-04-19T08:59:11.718Z,100465.05
2023-04-19T09:02:08.445Z,100462.46
2023-04-19T09:04:40.781Z,100461.25
2023-04-19T09:07:23.976Z,100465.00
2023-04-19T09:10:09.285Z,100465.66
2023-04-19T09:12:43.923Z,100469.95
2023-04-19T09:15:14.834Z,100470.13
2023-04-19T09:17:46.325Z,100471.98
2023-04-19T09:20:39.161Z,100472.13
2023-04-19T09:23:12.820Z,100475.85
2023-04-19T09:38:13.157Z,100482.36
2023-04-19T09:40:47.714Z,100487.02
2023-04-19T09:43:57.537Z,100484.52
2023-04-19T09:46:38.649Z,100484.41
2023-04-19T09:49:41.111Z,100484.98
2023-04-19T09:52:16.601Z,100484.00
2023-04-19T09:54:48.965Z,100480.77
2023-04-19T09:57:21.326Z,100484.35
2023-04-19T09:59:55.574Z,100484.73
2023-04-19T10:02:28.630Z,100488.16
2023-04-19T10:05:16.214Z,100485.92
2023-04-19T10:07:59.331Z,100488.98
2023-04-19T10:10:42.154Z,100489.66
2023-04-19T10:13:21.396Z,100490.00
2023-04-19T10:16:15.779Z,100489.17
2023-04-19T10:18:50.075Z,100493.98
2023-04-19T10:21:25.248Z,100488.54
2023-04-19T10:23:56.689Z,100484.78
2023-04-19T10:26:27.761Z,100486.50
2023-04-19T10:28:59.294Z,100490.08
2023-04-19T10:31:31.725Z,100486.68
2023-04-19T10:34:02.704Z,100490.46
2023-04-19T10:36:35.011Z,100493.71
2023-04-19T10:39:26.212Z,100491.65
2023-04-19T10:42:03.256Z,100496.07
2023-04-19T10:44:34.207Z,100500.02
2023-04-19T10:47:06.621Z,100498.66
2023-04-19T10:49:47.310Z,100493.23
2023-04-19T10:52:46.483Z,100497.34
2023-04-19T10:55:23.211Z,100494.08
2023-04-19T10:58:08.205Z,100496.13
2023-04-19T11:00:39.420Z,100499.86
2023-04-19T11:03:46.753Z,100499.15
2023-04-19T11:06:28.164Z,100498.43
2023-04-19T11:09:10.370Z,100500.59
2023-04-19T11:11:48.707Z,100502.07
2023-04-19T11:14:23.810Z,100503.52
2023-04-19T11:16:55.262Z,100501.05
2023-04-19T11:19:26.048Z,100501.14
2023-04-19T11:22:01.286Z,100502.77
2023-04-19T11:24:32.161Z,100498.27
2023-04-19T11:27:08.633Z,100498.17
2023-04-19T11:29:39.457Z,100500.61
2023-04-19T11:32:12.313Z,100504.10
2023-04-19T11:35:06.596Z,100506.56
2023-04-19T11:38:01.953Z,100499.91
2023-04-19T11:40:37.800Z,100498.45
2023-04-19T11:43:18.088Z,100497.06
2023-04-19T11:45:48.905Z,100495.83
2023-04-19T11:48:19.689Z,100490.34
2023-04-19T11:50:50.526Z,100492.69
2023-04-19T11:53:23.785Z,100497.08
2023-04-19T11:59:11.509Z,100495.20
2023-04-19T12:02:36.447Z,100490.83
2023-04-19T12:05:12.491Z,100485.36
2023-04-19T12:08:00.870Z,100485.45
2023-04-19T12:10:33.454Z,100482.20
2023-04-19T12:13:17.396Z,100481.27
2023-04-19T12:15:49.265Z,100480.01
2023-04-19T12:18:20.052Z,100484.09
2023-04-19T12:20:52.769Z,100486.18
2023-04-19T12:23:23.803Z,100486.84
2023-04-19T12:25:54.657Z,100490.58
2023-04-19T12:28:25.462Z,100490.91
2023-04-19T12:30:56.953Z,100489.61
2023-04-19T12:33:27.764Z,100495.11
2023-04-19T12:35:58.687Z,100497.52
2023-04-19T12:38:29.774Z,100495.13
2023-04-19T12:41:00.771Z,100497.41
2023-04-19T12:43:32.066Z,100506.80
2023-04-19T12:46:03.034Z,100503.44
2023-04-19T12:48:33.879Z,100507.09
2023-04-19T12:51:05.853Z,100507.39
2023-04-19T12:53:36.724Z,100507.17
2023-04-19T12:56:07.707Z,100508.63
2023-04-19T12:58:38.432Z,100504.08
2023-04-19T13:01:11.208Z,100509.69
2023-04-19T13:03:47.218Z,100511.67
2023-04-19T13:06:18.362Z,100510.73
2023-04-19T13:12:09.574Z,100513.95
2023-04-19T13:14:44.550Z,100512.60
2023-04-19T13:17:15.353Z,100508.89
2023-04-19T13:19:46.206Z,100508.04
2023-04-19T13:22:21.091Z,100508.36
2023-04-19T13:24:51.995Z,100503.81
2023-04-19T13:27:22.815Z,100503.16
2023-04-19T13:29:55.414Z,100503.67
2023-04-19T13:32:26.350Z,100501.73
2023-04-19T13:34:57.310Z,100494.66
2023-04-19T13:37:28.472Z,100499.98
2023-04-19T13:40:14.972Z,100499.79
2023-04-19T13:42:49.533Z,100499.63
2023-04-19T13:45:20.381Z,100501.58
2023-04-19T13:47:54.317Z,100497.72
2023-04-19T13:50:25.296Z,100492.48
2023-04-19T13:52:56.279Z,100494.11
2023-04-19T13:55:27.608Z,100493.04
2023-04-19T13:57:58.506Z,100492.28
2023-04-19T14:00:29.496Z,100496.33
2023-04-19T14:03:00.817Z,100494.19
2023-04-19T14:05:32.405Z,100489.65
2023-04-19T14:08:03.491Z,100488.58
2023-04-19T14:10:42.905Z,100491.35
2023-04-19T14:13:37.885Z,100488.92
2023-04-19T14:19:53.492Z,100485.94
2023-04-19T14:22:48.484Z,100485.70
2023-04-19T14:25:19.672Z,100483.54
2023-04-19T14:28:06.218Z,100485.16
2023-04-19T14:31:10.542Z,100481.08
2023-04-19T14:33:41.344Z,100480.13
2023-04-19T14:36:12.680Z,100483.73
2023-04-19T14:38:46.803Z,100483.77
2023-04-19T14:41:26.814Z,100479.14
2023-04-19T14:44:34.793Z,100474.34
2023-04-19T14:46:56.252Z,100472.91
2023-04-19T14:49:27.377Z,100478.06
2023-04-19T14:52:00.948Z,100478.73
2023-04-19T14:54:32.578Z,100484.77
2023-04-19T14:57:16.815Z,100488.57
2023-04-19T15:00:02.280Z,100486.61
2023-04-19T15:02:45.189Z,100484.83
2023-04-19T15:05:16.525Z,100486.23
2023-04-19T15:08:01.151Z,100482.33
2023-04-19T15:10:31.971Z,100485.36
2023-04-19T15:13:02.984Z,100489.25
2023-04-19T16:10:34.486Z,100537.90
2023-04-19T16:23:43.495Z,100544.52
2023-04-19T16:26:20.095Z,100557.75
2023-04-19T16:28:51.021Z,100560.39
2023-04-19T16:31:21.941Z,100556.47
2023-04-19T16:34:12.051Z,100562.48
2023-04-19T16:36:44.854Z,100566.65
2023-04-19T16:39:26.493Z,100566.12
2023-04-19T16:41:59.298Z,100563.53
2023-04-19T16:44:41.476Z,100567.21
2023-04-19T16:47:12.732Z,100569.17
2023-04-19T16:49:43.729Z,100571.11
2023-04-19T16:52:17.386Z,100574.42
2023-04-19T16:54:48.441Z,100579.61
2023-04-19T16:57:20.324Z,100583.61
2023-04-19T16:59:51.772Z,100581.98
2023-04-19T17:02:22.885Z,100586.81
2023-04-19T17:04:57.140Z,100588.92
2023-04-19T17:07:28.482Z,100590.01
2023-04-19T17:10:00.217Z,100588.33
2023-04-19T17:12:34.218Z,100595.69
2023-04-19T17:15:05.704Z,100596.75
2023-04-19T17:17:36.985Z,100596.27
2023-04-19T17:23:35.758Z,100600.30
2023-04-19T17:26:07.322Z,100602.60
2023-04-19T17:28:38.415Z,100601.77
2023-04-19T17:31:09.652Z,100604.04
2023-04-19T17:33:43.152Z,100606.82
2023-04-19T17:36:15.935Z,100612.16
2023-04-19T17:38:48.340Z,100610.49
2023-04-19T17:41:24.670Z,100612.91
2023-04-19T17:44:00.411Z,100615.19
2023-04-19T17:46:31.588Z,100616.96
2023-04-19T17:49:22.010Z,100622.27
2023-04-19T17:51:57.098Z,100624.56
2023-04-19T17:54:32.292Z,100630.23
2023-04-19T17:57:03.779Z,100631.80
2023-04-19T17:59:49.281Z,100637.97
2023-04-19T18:02:19.195Z,100641.27
2023-04-19T18:04:51.692Z,100643.68
2023-04-19T18:07:27.041Z,100644.77
2023-04-19T18:10:00.845Z,100646.34
2023-04-19T18:12:35.097Z,100645.87
2023-04-19T18:15:07.329Z,100647.45
2023-04-19T18:17:39.438Z,100652.79
2023-04-19T18:20:13.673Z,100653.71
2023-04-19T18:22:46.024Z,100659.04
2023-04-19T18:25:18.617Z,100655.31
2023-04-19T18:27:49.659Z,100653.63
2023-04-19T18:30:21.535Z,100656.91
2023-04-19T18:32:53.179Z,100654.88
2023-04-19T18:35:24.454Z,100650.96
2023-04-19T18:37:56.075Z,100652.86
2023-04-19T18:40:27.318Z,100651.88
2023-04-19T18:43:01.144Z,100650.02
2023-04-19T18:45:34.990Z,100652.94
2023-04-19T18:48:10.268Z,100652.42
2023-04-19T18:50:39.946Z,100655.34
2023-04-19T18:53:11.797Z,100656.70
2023-04-19T18:55:43.436Z,100653.63
2023-04-19T18:58:14.861Z,100654.48
2023-04-19T19:00:49.376Z,100653.80
2023-04-19T19:03:52.561Z,100652.77
2023-04-19T19:06:14.277Z,100652.09
2023-04-19T19:08:45.537Z,100651.23
2023-04-19T19:11:55.534Z,100654.48
2023-04-19T19:14:30.463Z,100658.58
2023-04-19T19:17:02.800Z,100665.77
2023-04-19T19:19:34.336Z,100669.67
2023-04-19T19:22:14.837Z,100667.60
2023-04-19T19:24:54.209Z,100666.40
2023-04-19T19:27:25.705Z,100664.84
2023-04-19T19:29:57.365Z,100672.54
2023-04-19T19:32:28.518Z,100671.67
2023-04-19T19:35:05.388Z,100677.65
2023-04-19T19:37:39.118Z,100681.23
2023-04-19T19:40:22.955Z,100686.19
2023-04-19T19:42:56.450Z,100685.68
2023-04-19T19:45:29.904Z,100685.16
2023-04-19T19:48:01.504Z,100686.88
2023-04-19T19:53:06.780Z,100681.38
2023-04-19T19:55:43.797Z,100681.02
2023-04-19T19:58:34.984Z,100678.77
2023-04-19T20:01:07.129Z,100678.41
2023-04-19T20:03:38.824Z,100678.37
2023-04-19T20:06:57.148Z,100679.39
2023-04-19T20:09:02.877Z,100676.80
2023-04-19T20:11:34.391Z,100671.14
2023-04-19T20:14:05.500Z,100670.10
2023-04-19T20:16:36.797Z,100664.77
2023-04-19T20:19:10.468Z,100657.56
2023-04-19T20:21:41.398Z,100650.53
2023-04-19T20:24:13.300Z,100650.86
2023-04-19T20:27:04.189Z,100659.07
2023-04-19T20:29:35.451Z,100664.88
2023-04-19T20:32:08.494Z,100664.71
2023-04-19T20:34:44.380Z,100668.83
2023-04-19T20:37:19.446Z,100669.51
2023-04-19T20:39:50.883Z,100670.70
2023-04-19T20:42:22.524Z,100671.39
2023-04-19T20:44:54.048Z,100663.02
2023-04-19T20:47:25.873Z,100659.92
2023-04-19T20:49:57.051Z,100658.36
2023-04-19T20:52:28.292Z,100659.20
2023-04-19T20:54:59.355Z,100661.95
2023-04-19T20:57:30.411Z,100667.24
2023-04-19T21:00:02.098Z,100667.92
2023-04-19T21:02:33.654Z,100670.81
2023-04-19T21:05:05.770Z,100675.42
2023-04-19T21:07:37.204Z,100673.54
2023-04-19T21:10:34.432Z,100677.65
2023-04-19T21:13:05.487Z,100675.94
2023-04-19T21:15:37.027Z,100674.71
2023-04-19T21:18:11.228Z,100673.34
2023-04-19T21:21:06.612Z,100672.14
2023-04-19T21:23:38.845Z,100673.69
2023-04-19T21:26:12.445Z,100674.03
2023-04-19T21:28:45.420Z,100675.56
2023-04-19T21:31:16.251Z,100675.75
2023-04-19T21:33:47.139Z,100677.96
2023-04-19T21:36:21.525Z,100676.61
2023-04-19T21:38:52.249Z,100678.00
2023-04-19T21:41:38.461Z,100682.45
2023-04-19T21:48:56.031Z,100695.48
2023-04-19T21:51:27.637Z,100692.77
2023-04-19T21:54:51.368Z,100696.02
2023-04-19T22:02:09.657Z,100693.86
2023-04-19T22:15:36.917Z,100699.06
2023-04-19T22:27:34.065Z,100692.70
2023-04-19T22:42:00.272Z,100695.58
2023-04-19T22:44:28.532Z,100691.36
2023-04-19T22:46:57.506Z,100693.80
2023-04-19T22:49:25.799Z,100692.83
2023-04-19T22:51:54.575Z,100697.00
2023-04-19T22:54:22.955Z,100697.55
2023-04-19T22:56:51.175Z,100700.00
2023-04-19T22:59:19.281Z,100698.33
2023-04-19T23:01:47.582Z,100699.58
2023-04-19T23:04:16.586Z,100700.81
2023-04-19T23:06:48.216Z,100699.99
2023-04-19T23:09:17.511Z,100698.99
2023-04-19T23:11:46.608Z,100704.33
2023-04-19T23:14:17.846Z,100701.96
2023-04-19T23:16:45.899Z,100700.96
2023-04-19T23:19:15.222Z,100699.96
2023-04-19T23:21:43.489Z,100701.86
2023-04-19T23:24:11.527Z,100698.98
2023-04-19T23:26:53.768Z,100693.69
2023-04-19T23:29:27.877Z,100689.09
2023-04-19T23:31:56.039Z,100690.31
2023-04-19T23:34:24.183Z,100692.20
2023-04-19T23:36:52.290Z,100694.95
2023-04-19T23:39:20.397Z,100688.98
2023-04-19T23:41:48.664Z,100687.63
2023-04-19T23:44:16.705Z,100686.10
2023-04-19T23:46:44.859Z,100687.64
2023-04-19T23:49:12.924Z,100685.77
2023-04-19T23:51:41.040Z,100686.30
2023-04-19T23:54:09.111Z,100688.70
2023-04-19T23:56:37.104Z,100687.85
2023-04-19T23:59:05.245Z,100685.77
